Time;durP1;ratioP1;P1;durP2;ratioP2;P2;SDS_P1;SDS_P2;PMS_P1;PMS_P2;Temp;Humidity;BMP_temperature;BMP_pressure;BME280_temperature;BME280_humidity;BME280_pressure;Samples;Min_cycle;Max_cycle;Signal;HPM_P1;HPM_P2
2021/05/26 00:01:44;;;;;;;7.42;4.70;;;;;;;15.12;78.47;100266.08;1707947;84;21118;-79
2021/05/26 00:04:12;;;;;;;7.03;4.50;;;;;;;15.09;78.79;100268.87;1709759;83;20963;-80
2021/05/26 00:06:40;;;;;;;6.45;4.00;;;;;;;15.07;79.09;100266.80;1728103;81;21608;-70
2021/05/26 00:09:07;;;;;;;7.30;4.42;;;;;;;15.07;79.08;100272.10;1770009;81;21137;-71
2021/05/26 00:11:34;;;;;;;4.42;2.75;;;;;;;15.02;79.82;100275.44;1770211;81;21067;-71
2021/05/26 00:14:01;;;;;;;6.83;4.55;;;;;;;14.94;80.15;100277.66;1770369;80;21072;-70
2021/05/26 00:16:30;;;;;;;7.87;4.40;;;;;;;14.84;80.74;100287.90;1770201;81;21103;-69
2021/05/26 00:18:57;;;;;;;6.72;4.03;;;;;;;14.73;81.06;100285.80;1770482;81;21075;-70
2021/05/26 00:21:25;;;;;;;7.12;4.17;;;;;;;14.62;81.44;100296.09;1730629;80;21602;-75
2021/05/26 00:23:53;;;;;;;7.17;4.37;;;;;;;14.51;81.97;100296.59;1676035;85;21068;-76
2021/05/26 00:26:20;;;;;;;5.80;4.20;;;;;;;14.43;82.68;100299.64;1675470;85;21521;-76
2021/05/26 00:28:47;;;;;;;7.92;5.12;;;;;;;14.31;82.88;100296.30;1648554;87;21033;-77
2021/05/26 00:31:20;;;;;;;8.88;5.10;;;;;;;14.24;83.39;100300.16;1648442;87;21048;-79
2021/05/26 00:33:44;;;;;;;7.15;4.60;;;;;;;14.18;83.66;100299.16;1648023;86;21599;-78
2021/05/26 00:36:11;;;;;;;6.50;5.00;;;;;;;14.12;83.53;100310.88;1659725;81;21168;-72
2021/05/26 00:38:37;;;;;;;10.50;5.25;;;;;;;14.08;84.40;100309.78;1684748;83;21789;-70
2021/05/26 00:41:04;;;;;;;8.25;4.87;;;;;;;14.03;84.88;100312.22;1676855;85;21045;-72
2021/05/26 00:43:32;;;;;;;10.18;5.87;;;;;;;14.01;84.74;100302.60;1676870;85;21099;-70
2021/05/26 00:45:59;;;;;;;10.43;6.28;;;;;;;14.01;84.45;100307.45;1676680;84;21633;-71
2021/05/26 00:48:26;;;;;;;10.72;6.20;;;;;;;13.98;84.28;100298.31;1677026;84;21041;-71
2021/05/26 00:50:53;;;;;;;6.80;3.00;;;;;;;13.98;84.29;100300.96;1680363;80;21838;-84
2021/05/26 00:53:22;;;;;;;10.45;5.00;;;;;;;14.00;84.44;100299.58;1695122;84;21128;-84
2021/05/26 00:55:49;;;;;;;6.40;4.75;;;;;;;14.00;84.70;100292.48;1695417;84;21108;-83
2021/05/26 00:58:16;;;;;;;7.40;4.28;;;;;;;14.04;84.94;100294.05;1695051;84;21582;-82
2021/05/26 01:00:43;;;;;;;8.10;4.55;;;;;;;14.09;84.68;100285.89;1695215;84;21100;-83
2021/05/26 01:03:15;;;;;;;5.30;4.60;;;;;;;14.14;84.03;100290.48;1695526;84;21124;-82
2021/05/26 01:05:44;;;;;;;7.53;4.55;;;;;;;14.21;83.48;100292.37;1696879;79;21100;-70
2021/05/26 01:08:12;;;;;;;7.55;4.60;;;;;;;14.27;83.39;100290.75;1678917;84;21138;-69
2021/05/26 01:10:39;;;;;;;8.23;4.90;;;;;;;14.31;82.99;100288.34;1666353;84;21315;-69
2021/05/26 01:13:09;;;;;;;8.45;5.08;;;;;;;14.31;82.57;100287.02;1692388;84;21108;-69
2021/05/26 01:15:36;;;;;;;6.92;4.05;;;;;;;14.33;82.49;100285.59;1698388;84;21085;-70
2021/05/26 01:18:20;;;;;;;5.58;4.53;;;;;;;14.35;82.63;100284.58;1693238;84;21146;-70
2021/05/26 01:20:47;;;;;;;4.35;3.10;;;;;;;14.34;82.30;100273.61;1662997;81;21774;-78
2021/05/26 01:23:17;;;;;;;7.22;4.17;;;;;;;14.34;82.33;100280.23;1672029;85;21126;-79
2021/05/26 01:25:50;;;;;;;7.75;4.40;;;;;;;14.30;82.70;100274.69;1671664;85;21058;-81
2021/05/26 01:28:21;;;;;;;7.25;4.55;;;;;;;14.30;83.01;100277.34;1671896;85;21656;-84
2021/05/26 01:30:48;;;;;;;5.80;4.20;;;;;;;14.30;83.03;100276.49;1671347;85;21054;-79
2021/05/26 01:33:16;;;;;;;8.60;5.35;;;;;;;14.32;83.58;100276.80;1671794;84;21123;-80
2021/05/26 01:35:45;;;;;;;8.78;5.05;;;;;;;14.35;83.07;100278.44;1674302;81;21111;-68
2021/05/26 01:38:15;;;;;;;7.22;4.95;;;;;;;14.38;82.50;100272.53;1704787;84;21094;-71
2021/05/26 01:40:42;;;;;;;9.78;5.17;;;;;;;14.42;82.44;100272.77;1726456;83;21094;-72
2021/05/26 01:43:10;;;;;;;8.73;5.55;;;;;;;14.45;82.50;100268.63;1726437;81;21111;-71
2021/05/26 01:45:39;;;;;;;6.08;4.85;;;;;;;14.47;82.51;100264.11;1714155;83;21047;-71
2021/05/26 01:48:07;;;;;;;5.70;4.50;;;;;;;14.49;82.28;100261.36;1714236;83;21079;-70
2021/05/26 01:50:35;;;;;;;10.95;4.90;;;;;;;14.50;82.40;100266.22;1714115;83;21111;-71
2021/05/26 01:53:23;;;;;;;5.42;4.08;;;;;;;14.50;82.46;100260.92;1704466;84;21379;-78
2021/05/26 01:55:50;;;;;;;5.15;3.90;;;;;;;14.50;82.66;100262.24;1706782;84;21105;-76
2021/05/26 01:58:18;;;;;;;6.65;3.85;;;;;;;14.47;82.42;100266.77;1706868;84;21173;-78
2021/05/26 02:00:47;;;;;;;4.22;3.27;;;;;;;14.46;82.71;100256.23;1706663;84;21090;-78
2021/05/26 02:03:13;;;;;;;7.12;5.08;;;;;;;14.44;82.67;100257.63;1706994;84;21098;-78
2021/05/26 02:05:51;;;;;;;;;;;;;;;;;;;;;
2021/05/26 02:08:20;;;;;;;6.45;4.62;;;;;;;14.42;83.11;100250.69;1722534;82;21078;-69
2021/05/26 02:13:35;;;;;;;7.12;4.58;;;;;;;14.41;83.04;100253.81;1717355;83;21113;-70
2021/05/26 02:16:05;;;;;;;7.37;4.83;;;;;;;14.39;83.20;100259.66;1717469;83;21113;-69
2021/05/26 02:18:33;;;;;;;8.20;5.17;;;;;;;14.35;83.01;100260.73;1717277;83;21082;-70
2021/05/26 02:21:02;;;;;;;6.55;4.87;;;;;;;14.30;83.06;100258.80;1714293;81;21092;-78
2021/05/26 02:23:29;;;;;;;10.08;5.17;;;;;;;14.30;83.25;100252.65;1660735;86;21074;-77
2021/05/26 02:28:58;;;;;;;6.20;5.03;;;;;;;14.34;83.55;100250.24;1813373;79;22551;-77
2021/05/26 02:31:28;;;;;;;10.13;4.83;;;;;;;14.30;83.50;100252.65;1775712;80;21542;-78
2021/05/26 02:33:55;;;;;;;5.80;3.72;;;;;;;14.28;83.97;100253.56;1775719;80;21015;-78
2021/05/26 02:36:22;;;;;;;6.85;3.85;;;;;;;14.31;84.60;100247.28;1762942;78;21231;-73
2021/05/26 02:38:51;;;;;;;6.50;4.37;;;;;;;14.34;84.31;100247.12;1708054;84;21665;-72
2021/05/26 02:41:19;;;;;;;6.37;4.47;;;;;;;14.39;84.31;100244.23;1689375;84;21093;-73
2021/05/26 02:43:46;;;;;;;6.62;5.00;;;;;;;14.41;83.45;100248.52;1702102;84;21043;-73
2021/05/26 02:46:13;;;;;;;6.97;4.78;;;;;;;14.46;83.14;100252.25;1702342;84;21084;-72
2021/05/26 02:48:40;;;;;;;8.43;5.25;;;;;;;14.49;82.83;100250.77;1702163;84;21028;-74
2021/05/26 02:51:08;;;;;;;8.75;5.12;;;;;;;14.55;82.71;100253.14;1700549;82;21671;-80
2021/05/26 02:53:35;;;;;;;9.35;4.95;;;;;;;14.60;82.60;100256.88;1684261;85;21107;-82
2021/05/26 02:56:03;;;;;;;5.37;4.50;;;;;;;14.66;83.14;100252.59;1642362;86;21063;-79
2021/05/26 02:58:38;;;;;;;10.10;4.95;;;;;;;14.73;83.01;100259.77;1642464;87;21166;-81
2021/05/26 03:01:09;;;;;;;5.42;4.45;;;;;;;14.75;81.85;100264.05;1622931;87;21633;-82
2021/05/26 03:03:50;;;;;;;5.78;4.50;;;;;;;14.78;81.81;100261.70;1642037;86;25763;-80
2021/05/26 03:06:19;;;;;;;7.17;4.35;;;;;;;14.80;82.05;100257.17;1648073;82;21065;-71
2021/05/26 03:08:47;;;;;;;8.98;3.95;;;;;;;14.84;81.87;100263.56;1731875;82;21060;-72
2021/05/26 03:11:16;;;;;;;5.47;3.80;;;;;;;14.90;82.43;100261.05;1731471;82;21586;-70
2021/05/26 03:13:52;;;;;;;10.45;4.47;;;;;;;15.00;81.99;100265.38;1729658;81;21186;-69
2021/05/26 03:16:21;;;;;;;10.45;4.90;;;;;;;15.08;81.50;100271.15;1731230;82;21124;-70
2021/05/26 03:18:49;;;;;;;8.60;4.92;;;;;;;15.17;80.78;100265.34;1731456;82;21645;-69
2021/05/26 03:21:18;;;;;;;6.42;4.65;;;;;;;15.26;80.37;100267.50;1729174;80;21049;-76
2021/05/26 03:23:47;;;;;;;6.87;4.78;;;;;;;15.37;80.01;100262.07;1688810;84;21642;-75
2021/05/26 03:26:19;;;;;;;6.05;4.85;;;;;;;15.50;79.25;100263.11;1692863;84;21066;-74
2021/05/26 03:28:46;;;;;;;6.53;4.50;;;;;;;15.61;78.03;100268.69;1729784;82;21026;-75
2021/05/26 03:31:13;;;;;;;8.00;4.42;;;;;;;15.75;77.96;100271.92;1729710;82;21711;-76
2021/05/26 03:33:40;;;;;;;5.80;4.12;;;;;;;15.88;77.09;100273.44;1729965;82;21070;-76
2021/05/26 03:36:28;;;;;;;11.60;4.22;;;;;;;15.99;77.46;100263.50;1729842;82;21067;-75
2021/05/26 03:38:55;;;;;;;5.65;4.15;;;;;;;16.14;77.00;100274.11;1678088;84;21102;-71
2021/05/26 03:41:23;;;;;;;4.90;3.98;;;;;;;16.32;76.64;100270.86;1633581;87;21120;-71
2021/05/26 03:43:50;;;;;;;4.80;4.30;;;;;;;16.51;76.28;100278.59;1633893;87;21124;-69
2021/05/26 03:46:17;;;;;;;8.05;4.22;;;;;;;16.68;75.52;100271.41;1633795;87;21096;-69
2021/05/26 03:48:46;;;;;;;6.45;4.60;;;;;;;16.88;74.48;100255.13;1633950;87;21057;-71
2021/05/26 03:51:34;;;;;;;10.95;4.62;;;;;;;17.07;73.60;100244.69;1633902;87;21649;-71
2021/05/26 03:54:02;;;;;;;8.83;4.67;;;;;;;17.13;72.93;100258.95;1669524;84;21613;-84
2021/05/26 03:56:31;;;;;;;16.32;5.05;;;;;;;17.16;73.00;100258.75;1748289;82;21064;-86
2021/05/26 03:59:00;;;;;;;11.73;5.45;;;;;;;17.25;73.09;100252.85;1748344;82;21087;-84
2021/05/26 04:01:32;;;;;;;16.42;5.40;;;;;;;17.32;72.67;100250.21;1749136;82;21171;-83
2021/05/26 04:03:59;;;;;;;8.35;5.58;;;;;;;17.33;72.20;100245.73;1749594;82;21063;-83
2021/05/26 04:06:26;;;;;;;9.63;4.90;;;;;;;17.28;72.64;100257.16;1709938;81;21046;-69
2021/05/26 04:08:53;;;;;;;6.15;4.28;;;;;;;17.25;72.90;100262.64;1749860;82;21101;-71
2021/05/26 04:11:20;;;;;;;7.10;5.03;;;;;;;17.26;73.47;100265.22;1749553;82;22116;-70
2021/05/26 04:14:00;;;;;;;11.22;5.45;;;;;;;17.19;73.44;100278.53;1749068;82;21122;-71
2021/05/26 04:16:35;;;;;;;8.08;4.95;;;;;;;17.14;74.05;100277.97;1729079;80;21218;-71
2021/05/26 04:19:04;;;;;;;8.50;4.87;;;;;;;17.14;74.53;100276.16;1701339;82;21110;-72
2021/05/26 04:21:31;;;;;;;6.80;4.55;;;;;;;17.23;74.47;100286.72;1748811;80;21112;-80
2021/05/26 04:23:58;;;;;;;10.98;5.40;;;;;;;17.27;74.26;100289.54;1722765;83;21182;-81
2021/05/26 04:26:26;;;;;;;10.45;5.28;;;;;;;17.35;74.39;100293.92;1718515;83;21135;-79
2021/05/26 04:28:54;;;;;;;8.58;4.75;;;;;;;17.42;74.04;100301.54;1679979;85;21099;-80
2021/05/26 04:31:23;;;;;;;9.25;5.65;;;;;;;17.50;74.15;100299.23;1686136;83;21322;-78
2021/05/26 04:33:50;;;;;;;9.93;5.60;;;;;;;17.63;73.64;100306.83;1710112;83;21055;-78
2021/05/26 04:36:17;;;;;;;11.73;5.70;;;;;;;17.85;73.15;100308.14;1717206;83;21055;-79
2021/05/26 04:38:44;;;;;;;10.95;6.05;;;;;;;18.15;72.44;100311.49;1706978;80;21163;-70
2021/05/26 04:41:11;;;;;;;9.35;5.60;;;;;;;18.45;71.26;100306.42;1704995;84;21127;-70
2021/05/26 04:43:39;;;;;;;14.68;5.70;;;;;;;18.73;70.49;100300.06;1654565;85;21156;-70
2021/05/26 04:46:06;;;;;;;6.58;5.08;;;;;;;18.95;69.28;100304.79;1671664;84;21627;-69
2021/05/26 04:48:33;;;;;;;10.00;5.15;;;;;;;19.03;68.62;100305.61;1639975;87;21119;-71
2021/05/26 04:51:01;;;;;;;7.75;5.12;;;;;;;19.12;68.77;100301.42;1669238;84;21752;-71
2021/05/26 04:53:29;;;;;;;9.88;4.83;;;;;;;19.20;68.71;100298.59;1631315;81;21176;-72
2021/05/26 04:55:56;;;;;;;11.65;4.05;;;;;;;19.28;68.27;100295.41;1662495;85;21108;-73
2021/05/26 04:58:23;;;;;;;9.90;3.80;;;;;;;19.30;67.63;100293.45;1679900;85;21081;-72
2021/05/26 05:00:51;;;;;;;5.10;3.45;;;;;;;19.35;67.46;100284.66;1665820;85;21052;-73
2021/05/26 05:03:19;;;;;;;12.30;4.70;;;;;;;19.42;67.05;100291.27;1673200;85;21183;-72
2021/05/26 05:05:46;;;;;;;4.45;3.40;;;;;;;19.48;67.19;100289.47;1638006;87;21613;-73
2021/05/26 05:08:14;;;;;;;13.35;3.92;;;;;;;19.50;66.87;100286.21;1681828;81;21068;-77
2021/05/26 05:10:42;;;;;;;10.53;3.70;;;;;;;19.57;66.02;100284.45;1691153;83;21075;-75
2021/05/26 05:13:11;;;;;;;6.85;3.47;;;;;;;19.69;65.65;100283.58;1697862;83;21061;-78
2021/05/26 05:15:38;;;;;;;9.43;3.20;;;;;;;19.76;65.21;100282.66;1693648;83;21906;-78
2021/05/26 05:18:07;;;;;;;8.83;3.65;;;;;;;19.75;64.95;100280.47;1652055;85;21089;-80
2021/05/26 05:20:34;;;;;;;9.30;3.70;;;;;;;19.75;64.89;100283.14;1681649;85;21590;-78
2021/05/26 05:23:01;;;;;;;9.43;4.17;;;;;;;19.74;65.49;100285.46;1693118;81;21089;-69
2021/05/26 05:25:28;;;;;;;9.90;4.70;;;;;;;19.64;65.80;100283.03;1680747;84;21028;-68
2021/05/26 05:27:56;;;;;;;12.30;5.05;;;;;;;19.56;65.97;100293.44;1688177;84;21086;-68
2021/05/26 05:30:25;;;;;;;11.63;5.35;;;;;;;19.56;66.36;100300.12;1678515;85;21093;-70
2021/05/26 05:32:52;;;;;;;13.43;5.28;;;;;;;19.56;66.25;100296.11;1681815;84;21615;-69
2021/05/26 05:35:19;;;;;;;7.15;4.55;;;;;;;19.55;66.61;100299.73;1681505;84;21212;-67
2021/05/26 05:37:46;;;;;;;8.40;4.37;;;;;;;19.53;66.83;100305.66;1698690;82;21060;-72
2021/05/26 05:40:14;;;;;;;6.10;4.42;;;;;;;19.43;67.33;100314.81;1710815;82;21124;-75
2021/05/26 05:42:41;;;;;;;9.88;4.25;;;;;;;19.30;67.78;100320.16;1712121;82;21068;-75
2021/05/26 05:45:09;;;;;;;8.90;4.37;;;;;;;19.22;68.53;100318.52;1722516;82;21298;-73
2021/05/26 05:47:36;;;;;;;9.53;4.22;;;;;;;19.17;67.36;100326.01;1683504;83;21127;-73
2021/05/26 05:50:04;;;;;;;9.60;4.20;;;;;;;18.95;68.60;100339.48;1679980;85;21598;-74
2021/05/26 05:52:32;;;;;;;7.55;4.30;;;;;;;18.82;69.35;100326.14;1674077;82;21840;-68
2021/05/26 05:54:59;;;;;;;10.53;4.50;;;;;;;18.85;69.11;100323.74;1653188;86;21155;-69
2021/05/26 05:57:26;;;;;;;12.07;5.55;;;;;;;18.77;68.95;100323.40;1658531;86;21091;-70
2021/05/26 05:59:54;;;;;;;10.40;5.40;;;;;;;18.72;69.35;100329.50;1658919;86;21078;-70
2021/05/26 06:02:21;;;;;;;12.75;6.30;;;;;;;18.73;69.21;100326.73;1659252;86;21067;-71
2021/05/26 06:04:48;;;;;;;9.60;5.10;;;;;;;18.73;69.52;100324.07;1661012;86;21089;-71
2021/05/26 06:07:17;;;;;;;10.43;4.70;;;;;;;18.78;69.12;100313.12;1651940;83;22324;-75
2021/05/26 06:09:44;;;;;;;9.98;4.20;;;;;;;18.83;69.13;100316.32;1624666;88;21077;-74
2021/05/26 06:12:11;;;;;;;19.27;4.97;;;;;;;18.89;68.54;100321.25;1624543;88;21699;-74
2021/05/26 06:14:38;;;;;;;6.03;4.28;;;;;;;19.02;68.00;100314.08;1638956;85;21113;-77
2021/05/26 06:17:05;;;;;;;8.93;4.53;;;;;;;19.23;67.74;100316.22;1668061;85;21735;-73
2021/05/26 06:19:32;;;;;;;7.28;4.30;;;;;;;19.44;66.05;100317.39;1672684;85;21226;-74
2021/05/26 06:22:05;;;;;;;8.78;4.58;;;;;;;19.65;65.74;100312.81;1633874;82;22104;31
2021/05/26 06:24:33;;;;;;;5.00;3.77;;;;;;;19.89;65.49;100317.72;1699492;83;21059;-70
2021/05/26 06:27:00;;;;;;;12.82;4.60;;;;;;;20.16;63.59;100323.84;1703584;83;21638;-70
2021/05/26 06:29:27;;;;;;;11.30;4.53;;;;;;;20.23;63.57;100317.92;1755981;80;21329;-70
2021/05/26 06:31:56;;;;;;;16.75;4.20;;;;;;;20.41;62.67;100317.53;1766712;81;21608;-70
2021/05/26 06:34:23;;;;;;;6.35;3.87;;;;;;;20.75;62.00;100323.84;1766929;81;21062;-70
2021/05/26 06:36:51;;;;;;;23.07;4.70;;;;;;;21.29;60.63;100330.42;1763379;81;21145;-67
2021/05/26 06:39:19;;;;;;;8.73;3.90;;;;;;;21.68;59.03;100329.59;1641612;80;21175;-73
2021/05/26 06:41:46;;;;;;;10.32;3.67;;;;;;;21.95;56.95;100331.38;1688228;84;21143;-71
2021/05/26 06:44:14;;;;;;;9.15;3.05;;;;;;;21.95;55.42;100324.67;1684382;85;21075;-72
2021/05/26 06:46:40;;;;;;;9.88;3.42;;;;;;;21.88;54.33;100324.81;1689615;84;21088;-72
2021/05/26 06:49:08;;;;;;;12.15;3.85;;;;;;;21.94;55.14;100328.81;1667597;85;21215;-70
2021/05/26 06:51:35;;;;;;;9.25;3.20;;;;;;;22.11;55.05;100327.42;1667404;85;21166;-71
2021/05/26 06:54:02;;;;;;;6.17;2.92;;;;;;;22.29;52.86;100331.33;1695374;82;21668;-69
2021/05/26 06:56:40;;;;;;;15.05;3.30;;;;;;;22.27;53.21;100334.63;1706659;83;21159;-71
2021/05/26 06:59:07;;;;;;;11.57;3.33;;;;;;;22.51;53.15;100344.28;1770872;79;21074;-70
2021/05/26 07:01:34;;;;;;;13.03;3.10;;;;;;;22.63;52.66;100344.59;1779443;79;21142;-68
2021/05/26 07:04:01;;;;;;;4.83;2.90;;;;;;;22.80;51.76;100349.39;1777773;79;21031;-69
2021/05/26 07:06:29;;;;;;;7.50;2.60;;;;;;;22.76;51.38;100343.08;1702079;83;21115;-69
2021/05/26 07:08:56;;;;;;;10.58;3.50;;;;;;;22.55;51.79;100339.88;1686905;80;21119;-71
2021/05/26 07:11:24;;;;;;;17.65;3.35;;;;;;;22.34;52.72;100341.18;1720466;81;21624;-71
2021/05/26 07:13:51;;;;;;;18.70;4.35;;;;;;;22.24;53.33;100341.56;1726807;81;21110;-71
2021/05/26 07:16:18;;;;;;;27.10;4.60;;;;;;;22.37;53.89;100336.05;1735391;81;21085;-71
2021/05/26 07:18:46;;;;;;;21.62;4.75;;;;;;;22.48;53.73;100327.11;1740754;81;21091;-70
2021/05/26 07:21:15;;;;;;;25.48;4.70;;;;;;;22.65;53.07;100328.36;1731007;81;21125;-71
2021/05/26 07:23:44;;;;;;;24.73;4.87;;;;;;;22.77;51.87;100330.84;1699796;80;21090;-69
2021/05/26 07:26:11;;;;;;;35.33;5.45;;;;;;;22.79;52.13;100343.65;1684943;84;21123;-69
2021/05/26 07:28:41;;;;;;;25.27;5.15;;;;;;;22.79;52.04;100352.20;1684225;84;21405;-69
2021/05/26 07:31:07;;;;;;;32.10;5.78;;;;;;;22.78;52.33;100347.33;1681215;84;21120;-70
2021/05/26 07:33:34;;;;;;;19.02;4.05;;;;;;;22.87;51.79;100344.83;1678066;85;21590;-68
2021/05/26 07:36:01;;;;;;;15.63;4.08;;;;;;;22.98;51.93;100351.02;1674455;85;21111;-69
2021/05/26 07:38:28;;;;;;;18.92;4.37;;;;;;;23.09;51.68;100346.07;1677718;80;21702;-70
2021/05/26 07:40:55;;;;;;;13.38;3.85;;;;;;;23.22;51.30;100348.56;1678083;84;21619;-71
2021/05/26 07:43:23;;;;;;;14.33;3.72;;;;;;;23.18;51.10;100352.48;1676492;83;21108;-72
2021/05/26 07:45:50;;;;;;;17.87;3.95;;;;;;;23.07;51.16;100356.09;1683873;83;21136;-71
2021/05/26 07:48:17;;;;;;;18.42;4.65;;;;;;;22.95;52.29;100358.47;1677145;84;22273;-71
2021/05/26 07:50:45;;;;;;;15.20;4.40;;;;;;;22.94;53.00;100358.12;1633858;87;21300;-71
2021/05/26 07:53:12;;;;;;;10.93;4.08;;;;;;;22.82;52.55;100366.23;1649278;80;21081;-69
2021/05/26 07:55:39;;;;;;;13.03;4.08;;;;;;;22.75;53.00;100363.70;1678129;84;21126;-70
2021/05/26 07:58:08;;;;;;;19.52;5.60;;;;;;;22.68;53.10;100359.81;1680911;84;21085;-72
2021/05/26 08:00:35;;;;;;;11.33;4.03;;;;;;;22.63;53.51;100359.35;1676715;84;21102;-71
2021/05/26 08:03:01;;;;;;;10.03;4.10;;;;;;;22.65;53.64;100361.42;1687430;85;21639;-71
2021/05/26 08:05:28;;;;;;;15.78;4.10;;;;;;;22.63;53.50;100364.72;1681833;84;21081;-70
2021/05/26 08:07:55;;;;;;;13.90;3.77;;;;;;;22.56;53.88;100362.19;1668236;81;21744;-71
2021/05/26 08:10:22;;;;;;;8.88;3.50;;;;;;;22.40;54.74;100360.77;1714295;82;21101;-72
2021/05/26 08:12:49;;;;;;;11.83;3.20;;;;;;;22.31;55.22;100372.27;1695050;84;21128;-71
2021/05/26 08:15:17;;;;;;;16.12;4.33;;;;;;;22.30;54.73;100375.94;1696378;84;21066;-72
2021/05/26 08:17:43;;;;;;;7.78;3.70;;;;;;;22.37;54.54;100375.80;1698184;83;21066;-72
2021/05/26 08:20:12;;;;;;;13.43;3.50;;;;;;;22.47;54.64;100375.03;1695452;83;21166;-73
2021/05/26 08:22:40;;;;;;;8.35;3.60;;;;;;;22.56;54.35;100375.61;1692205;81;21175;-69
2021/05/26 08:25:09;;;;;;;11.88;4.08;;;;;;;22.64;54.44;100375.84;1691654;84;21092;-69
2021/05/26 08:27:36;;;;;;;11.70;4.00;;;;;;;22.66;54.04;100376.56;1717098;82;21092;-70
2021/05/26 08:30:05;;;;;;;17.52;3.77;;;;;;;22.60;54.07;100379.75;1717045;82;21073;-70
2021/05/26 08:32:32;;;;;;;13.18;3.50;;;;;;;22.59;53.99;100375.34;1716512;82;21096;-71
2021/05/26 08:34:59;;;;;;;11.78;3.55;;;;;;;22.63;53.58;100366.06;1704172;82;21133;-69
2021/05/26 08:37:26;;;;;;;13.48;4.40;;;;;;;22.59;53.71;100375.34;1706347;82;21066;-69
2021/05/26 08:39:54;;;;;;;13.55;4.22;;;;;;;22.50;53.85;100375.64;1712690;83;21057;-73
2021/05/26 08:42:22;;;;;;;14.05;4.37;;;;;;;22.39;53.78;100377.87;1705691;82;21121;-71
2021/05/26 08:44:49;;;;;;;15.40;4.25;;;;;;;22.31;54.14;100377.63;1710870;82;21152;-72
2021/05/26 08:47:18;;;;;;;12.88;3.90;;;;;;;22.30;54.41;100374.60;1715298;82;21349;-70
2021/05/26 08:49:48;;;;;;;11.33;4.00;;;;;;;22.35;54.04;100376.41;1710633;82;21578;-71
2021/05/26 08:52:16;;;;;;;9.63;4.17;;;;;;;22.41;54.47;100377.25;1714969;81;21116;-72
2021/05/26 08:54:45;;;;;;;11.80;4.78;;;;;;;22.33;53.80;100379.70;1693433;80;21595;-70
2021/05/26 08:57:12;;;;;;;11.38;4.70;;;;;;;22.30;54.37;100375.09;1679479;85;21108;-72
2021/05/26 08:59:41;;;;;;;8.58;4.03;;;;;;;22.34;54.04;100373.38;1676005;85;21114;-70
2021/05/26 09:02:12;;;;;;;10.85;3.42;;;;;;;22.34;54.26;100372.03;1659430;85;21171;-70
2021/05/26 09:04:38;;;;;;;12.98;3.80;;;;;;;22.36;54.61;100376.79;1652834;85;21128;-70
2021/05/26 09:07:19;;;;;;;11.08;3.37;;;;;;;22.41;54.51;100372.39;1657004;85;21610;-69
2021/05/26 09:09:52;;;;;;;7.97;3.98;;;;;;;22.43;54.74;100380.28;1649920;81;21651;-76
2021/05/26 09:12:32;;;;;;;10.20;3.00;;;;;;;22.40;54.62;100382.73;1647759;85;21108;-76
2021/05/26 09:15:05;;;;;;;;;;;;;;;22.23;55.25;100386.81;1652114;86;21124;-76
2021/05/26 09:17:33;;;;;;;13.50;3.52;;;;;;;22.03;56.07;100387.55;1646212;86;20252;-75
2021/05/26 09:20:17;;;;;;;12.45;3.50;;;;;;;21.83;56.81;100396.70;1647042;87;21060;-75
2021/05/26 09:23:08;;;;;;;12.47;4.17;;;;;;;21.71;57.47;100389.64;1646172;86;21712;-71
2021/05/26 09:25:48;;;;;;;27.37;5.08;;;;;;;21.64;58.17;100391.11;1651566;84;22181;-70
2021/05/26 09:28:35;;;;;;;18.60;5.20;;;;;;;21.54;58.70;100391.83;1646201;85;21085;-70
2021/05/26 09:31:09;;;;;;;18.30;4.72;;;;;;;21.44;59.26;100393.55;1654840;85;21160;-70
2021/05/26 09:33:46;;;;;;;10.50;4.17;;;;;;;21.31;59.35;100399.45;1651448;85;21126;-70
2021/05/26 09:36:24;;;;;;;12.03;4.12;;;;;;;21.23;59.68;100390.66;1651020;85;21114;-69
2021/05/26 09:38:57;;;;;;;11.12;3.92;;;;;;;21.15;60.08;100393.94;1674400;79;21110;-74
2021/05/26 09:41:27;;;;;;;22.10;4.55;;;;;;;21.01;60.69;100401.34;1702107;82;21133;-74
2021/05/26 09:43:58;;;;;;;7.35;4.55;;;;;;;20.89;60.80;100404.44;1708036;82;21136;-75
2021/05/26 09:46:36;;;;;;;8.00;3.70;;;;;;;20.78;61.08;100400.41;1712701;82;21112;-74
2021/05/26 09:49:18;;;;;;;8.73;4.40;;;;;;;20.68;61.39;100406.45;1698160;82;21107;-74
2021/05/26 09:51:51;;;;;;;12.33;4.30;;;;;;;20.60;62.09;100408.83;1711676;82;21153;-75
2021/05/26 09:54:24;;;;;;;29.92;5.40;;;;;;;20.49;62.17;100407.41;1688188;80;22225;-69
2021/05/26 09:57:04;;;;;;;15.58;5.70;;;;;;;20.43;62.73;100402.03;1649754;85;21709;-68
2021/05/26 09:59:32;;;;;;;9.98;5.00;;;;;;;20.41;62.84;100403.13;1649625;85;21647;-70
2021/05/26 10:01:59;;;;;;;16.42;4.90;;;;;;;20.40;62.89;100409.42;1648587;85;21150;-68
2021/05/26 10:04:26;;;;;;;24.40;5.67;;;;;;;20.35;63.03;100411.58;1648279;85;21128;-69
2021/05/26 10:07:12;;;;;;;14.65;5.37;;;;;;;20.27;63.69;100415.68;1658728;85;21133;-69
2021/05/26 10:09:41;;;;;;;16.07;5.15;;;;;;;20.20;63.98;100413.55;1666490;80;21102;-72
2021/05/26 10:12:22;;;;;;;15.10;4.62;;;;;;;20.18;64.16;100420.36;1668147;83;21140;-71
2021/05/26 10:14:51;;;;;;;13.90;5.30;;;;;;;20.16;64.79;100421.44;1688648;83;21103;-71
2021/05/26 10:17:23;;;;;;;10.88;4.92;;;;;;;20.07;65.22;100428.30;1705265;83;21715;-70
2021/05/26 10:19:50;;;;;;;18.75;5.72;;;;;;;19.98;65.77;100420.94;1683041;83;21099;-70
2021/05/26 10:22:17;;;;;;;9.20;4.60;;;;;;;19.88;65.95;100422.94;1707743;83;21152;-71
2021/05/26 10:24:45;;;;;;;14.70;5.50;;;;;;;19.85;66.11;100420.95;1701497;80;21639;-69
2021/05/26 10:27:33;;;;;;;15.23;4.85;;;;;;;19.82;66.36;100423.36;1709852;82;21099;-69
2021/05/26 10:30:02;;;;;;;12.85;6.03;;;;;;;19.80;66.32;100423.95;1684932;83;21119;-68
2021/05/26 10:32:32;;;;;;;8.75;5.33;;;;;;;19.74;66.66;100427.08;1710924;82;21072;-70
2021/05/26 10:35:02;;;;;;;10.05;5.55;;;;;;;19.67;66.99;100425.77;1669297;82;21156;-72
2021/05/26 10:37:40;;;;;;;16.82;6.25;;;;;;;19.63;67.47;100428.28;1710158;83;21129;-69
2021/05/26 10:40:32;;;;;;;17.50;6.17;;;;;;;19.64;68.34;100424.63;1689319;82;21892;-72
2021/05/26 10:43:23;;;;;;;16.48;6.25;;;;;;;19.66;68.51;100429.39;1696761;83;21089;-71
2021/05/26 10:45:52;;;;;;;13.45;5.87;;;;;;;19.71;68.54;100419.25;1681024;83;21062;-71
2021/05/26 10:48:52;;;;;;;12.23;5.83;;;;;;;19.75;68.54;100421.24;1681828;83;21110;-71
2021/05/26 10:51:19;;;;;;;11.15;5.28;;;;;;;19.77;68.68;100420.17;1623910;87;21408;-71
2021/05/26 10:53:47;;;;;;;15.20;5.70;;;;;;;19.82;68.86;100422.02;1669086;80;21590;-70
2021/05/26 10:56:37;;;;;;;20.10;5.37;;;;;;;19.82;68.75;100425.19;1769198;80;21067;-69
2021/05/26 10:59:13;;;;;;;11.83;4.92;;;;;;;19.82;68.43;100423.36;1740039;79;21093;-70
2021/05/26 11:02:12;;;;;;;11.90;5.65;;;;;;;19.83;68.75;100423.75;1747436;80;21041;-69
2021/05/26 11:04:40;;;;;;;9.65;5.33;;;;;;;19.82;68.86;100428.70;1751930;80;21078;-69
2021/05/26 11:07:35;;;;;;;14.60;5.45;;;;;;;19.81;69.56;100431.02;1754904;80;23276;-70
2021/05/26 11:10:05;;;;;;;8.95;5.20;;;;;;;19.77;69.80;100430.86;1739537;80;21065;-77
2021/05/26 11:12:57;;;;;;;16.32;5.60;;;;;;;19.75;69.95;100430.11;1706856;82;21049;-75
2021/05/26 11:15:44;;;;;;;9.43;5.10;;;;;;;19.78;69.88;100428.55;1736203;81;21307;-75
2021/05/26 11:18:15;;;;;;;38.73;5.95;;;;;;;19.79;70.38;100426.27;1729158;81;21170;-74
2021/05/26 11:20:42;;;;;;;18.65;5.47;;;;;;;19.77;70.66;100422.84;1735077;81;21698;-75
2021/05/26 11:23:29;;;;;;;12.05;5.53;;;;;;;19.80;70.96;100425.28;1729520;81;21248;-76
2021/05/26 11:25:57;;;;;;;8.93;4.87;;;;;;;19.84;70.97;100422.77;1749401;80;21095;-70
2021/05/26 11:28:35;;;;;;;33.83;6.17;;;;;;;19.90;70.76;100417.48;1754065;80;21138;-70
2021/05/26 11:31:07;;;;;;;8.68;4.25;;;;;;;19.96;70.68;100412.17;1769196;80;21106;-71
2021/05/26 11:33:35;;;;;;;12.75;4.78;;;;;;;20.07;70.49;100408.25;1723910;82;21179;-70
2021/05/26 11:36:05;;;;;;;8.38;4.90;;;;;;;20.21;69.71;100404.58;1753813;80;21110;-72
2021/05/26 11:38:33;;;;;;;15.90;5.55;;;;;;;20.25;69.61;100401.56;1749718;79;21243;-71
2021/05/26 11:41:02;;;;;;;16.87;4.85;;;;;;;20.29;69.25;100403.05;1719676;82;21096;-72